• Join FlightAware (Why Join?)
  • Login
  • US Flag 
08:32PM EST


 

Airport Tracker/Info


-or-


 

Live Flight TrackerFlight Track Log ✈ N44655 ✈ 28-Apr-2014 ✈ KIAG - KGVQ

Flight Track Log - Related Links

Times and Time Zones

All times are in EDT time to prevent confusion due to time zone crossing. See the N44655 flight status page for this flight to view local times or setup timezone preferences in your user account.

Time Position Orientation Groundspeed Altitude Reporting Facility
EDT Latitude Longitude Course Direction KTS MPH feet Rate Location/Type
05:00PM 43.1167 -78.8333 97° East 97 112 2,000  Level Buffalo TRACON
05:01PM 43.1081 -78.8153 123° Southeast 93 107 1,900 -120 Descending Cleveland Center
05:02PM 43.1067 -78.7819 93° East 93 107 1,900  Level Cleveland Center
05:04PM 43.1000 -78.6833 95° East 87 100 1,900  Level Buffalo TRACON
05:05PM 43.1000 -78.6500 90° East 91 105 2,000  Climbing Buffalo TRACON
05:06PM 43.0788 -78.6450 97° East  Level Estimated
05:06PM 43.0956 -78.6439 135° Southeast 87 100 1,900  Level Cleveland Center
05:07PM 43.0933 -78.6081 95° East 88 101 2,000  Climbing Cleveland Center
05:08PM 43.0922 -78.5719 92° East 90 104 2,000 -120 Level Cleveland Center
05:09PM 43.0900 -78.5356 95° East 92 106 1,800 -180 Descending Cleveland Center
05:10PM 43.0872 -78.5003 96° East 92 106 1,700 -60 Descending Cleveland Center
05:11PM 43.0794 -78.4619 106° East 92 106 1,700  Level Cleveland Center
05:12PM 43.0750 -78.4278 100° East 92 106 1,800 120 Climbing Cleveland Center
05:13PM 43.0750 -78.4150 90° East 90 104 1,900  Climbing Cleveland Center
05:13PM 43.0736 -78.4089 107° East 90 104 1,800 -180 Descending Cleveland Center
05:13PM 43.0719 -78.3925 98° East 92 106 1,800 -120 Level Cleveland Center
05:14PM 43.0706 -78.3733 96° East 94 108 1,700 -120 Descending Cleveland Center
05:14PM 43.0686 -78.3569 99° East 92 106 1,700 180 Level Cleveland Center
05:15PM 43.0678 -78.3347 93° East 96 110 1,900 180 Climbing Cleveland Center
05:15PM 43.0658 -78.3206 101° East 92 106 1,900  Level Cleveland Center
05:16PM 43.0642 -78.3019 97° East 94 108 1,900  Level Cleveland Center
05:16PM 43.0642 -78.2797 90° East 92 106 1,900  Level Cleveland Center
05:17PM 43.0494 -78.2717 158° South 101 116 1,900  Level Cleveland Center
05:17PM 43.0358 -78.2617 152° Southeast 103 119 1,900 -300 Level Cleveland Center
05:18PM 43.0339 -78.2472 100° East 103 119 1,600 -540 Descending Cleveland Center
05:18PM 43.0311 -78.2264 100° East 96 110 1,400 -300 Descending Cleveland Center
05:19PM 43.0322 -78.2150 82° East 87 100 1,300 -300 Descending Cleveland Center
05:19PM 43.0319 -78.1981 91° East 85 98 1,100 -300 Descending Cleveland Center
05:20PM 43.0319 -78.1886 90° East 66 76 1,000 -240 Descending Cleveland Center
05:20PM 43.0319 -78.1686 90° East 79 91 900 -180 Descending Cleveland Center
05:22PM 43.0317 -78.1697 114° Southeast  Level Estimated